Time;durP1;ratioP1;P1;durP2;ratioP2;P2;SDS_P1;SDS_P2;PMS_P1;PMS_P2;Temp;Humidity;BMP_temperature;BMP_pressure;BME280_temperature;BME280_humidity;BME280_pressure;Samples;Min_cycle;Max_cycle;Signal;HPM_P1;HPM_P2
2022/06/20 06:13:55;;;;;;;9.83;5.40;;;16.90;99.90;;;;;;5041612;27;20582;-73
2022/06/20 06:19:21;;;;;;;9.50;5.73;;;16.70;99.90;;;;;;5064930;28;20434;-74
2022/06/20 06:21:49;;;;;;;9.47;6.13;;;16.60;99.90;;;;;;5050332;28;20471;-73
2022/06/20 06:24:19;;;;;;;8.23;6.07;;;16.70;99.90;;;;;;5046884;28;20440;-73
2022/06/20 06:26:48;;;;;;;12.53;6.10;;;16.70;99.90;;;;;;5047392;28;20449;-73
2022/06/20 06:29:20;;;;;;;18.20;6.90;;;16.80;99.90;;;;;;5043833;28;20452;-73
2022/06/20 06:31:50;;;;;;;13.17;6.70;;;16.80;99.90;;;;;;5043978;28;20517;-73
2022/06/20 06:34:23;;;;;;;18.07;6.70;;;16.80;99.90;;;;;;5042608;28;20941;-74
2022/06/20 06:36:53;;;;;;;15.50;6.20;;;16.80;99.90;;;;;;5048048;28;20457;-73
2022/06/20 06:39:26;;;;;;;18.87;7.50;;;16.80;99.90;;;;;;5047030;28;20452;-73
2022/06/20 06:41:56;;;;;;;14.70;7.50;;;16.70;99.90;;;;;;5045312;28;20468;-74
2022/06/20 06:44:30;;;;;;;17.00;9.17;;;16.80;99.90;;;;;;5045650;28;20471;-74
2022/06/20 06:46:57;;;;;;;13.67;8.30;;;16.80;99.90;;;;;;5045051;28;20455;-74
2022/06/20 06:49:31;;;;;;;17.53;8.53;;;16.90;99.90;;;;;;5046470;28;20431;-74
2022/06/20 06:52:06;;;;;;;12.70;8.60;;;16.90;99.90;;;;;;5046741;28;21033;-74
2022/06/20 06:54:57;;;;;;;10.43;8.50;;;17.00;99.90;;;;;;5045146;28;20450;-74
2022/06/20 06:57:29;;;;;;;12.50;9.10;;;17.00;99.90;;;;;;5044960;28;20431;-73
2022/06/20 07:00:18;;;;;;;11.93;8.00;;;17.00;99.90;;;;;;5045622;28;20841;-72
2022/06/20 07:02:51;;;;;;;12.73;8.50;;;17.10;99.90;;;;;;5045439;28;20453;-73
2022/06/20 07:05:23;;;;;;;16.40;8.77;;;17.20;99.90;;;;;;5045308;28;20427;-73
2022/06/20 07:07:56;;;;;;;14.53;7.47;;;17.20;99.90;;;;;;5045737;28;21032;-73
2022/06/20 07:10:27;;;;;;;8.83;7.70;;;17.30;99.90;;;;;;5043199;28;21242;-74
2022/06/20 07:12:59;;;;;;;13.40;7.93;;;17.30;99.90;;;;;;5044019;28;20459;-73
2022/06/20 07:15:29;;;;;;;10.63;7.50;;;17.30;99.90;;;;;;5044290;28;20427;-73
2022/06/20 07:17:59;;;;;;;12.83;8.90;;;17.30;99.90;;;;;;5043864;28;20419;-73
2022/06/20 07:20:30;;;;;;;17.07;10.43;;;17.30;99.90;;;;;;5041420;28;21065;-74
2022/06/20 07:23:01;;;;;;;16.10;10.43;;;17.30;99.90;;;;;;5042534;28;20507;-73
2022/06/20 07:25:35;;;;;;;14.00;9.93;;;17.30;99.90;;;;;;5030385;28;20420;-72
2022/06/20 07:28:07;;;;;;;16.70;12.07;;;17.20;99.90;;;;;;5031902;28;20452;-73
2022/06/20 07:30:41;;;;;;;11.83;10.20;;;17.20;99.90;;;;;;5031304;28;20876;-74
2022/06/20 07:33:20;;;;;;;8.67;7.80;;;17.30;99.90;;;;;;5031734;28;20459;-73
2022/06/20 07:35:50;;;;;;;12.50;7.77;;;17.40;99.90;;;;;;5030474;28;20432;-73
2022/06/20 07:38:22;;;;;;;16.17;6.53;;;17.40;99.90;;;;;;5028718;28;20442;-76
2022/06/20 07:40:53;;;;;;;12.00;7.50;;;17.50;99.90;;;;;;5028118;28;20469;-75
2022/06/20 07:43:23;;;;;;;13.40;7.07;;;17.40;99.90;;;;;;5031348;28;20496;-73
2022/06/20 07:45:54;;;;;;;10.30;7.90;;;17.30;99.90;;;;;;5027268;28;20480;-76
2022/06/20 07:48:27;;;;;;;11.07;8.20;;;17.30;99.90;;;;;;5027937;28;20474;-78
2022/06/20 07:50:58;;;;;;;13.50;7.23;;;17.30;99.90;;;;;;5033167;28;21067;-80
2022/06/20 07:53:28;;;;;;;13.30;7.03;;;17.20;99.90;;;;;;5034733;28;20447;-77
2022/06/20 07:55:59;;;;;;;12.67;7.70;;;17.10;99.90;;;;;;5028842;28;20511;-77
2022/06/20 07:58:30;;;;;;;8.30;7.03;;;17.00;99.90;;;;;;5031349;28;20485;-78
2022/06/20 08:01:00;;;;;;;14.83;7.40;;;16.90;99.90;;;;;;5031091;28;20850;-77
2022/06/20 08:03:34;;;;;;;11.87;8.00;;;17.00;99.90;;;;;;5030565;28;20468;-76
2022/06/20 08:06:05;;;;;;;9.00;7.50;;;17.00;99.90;;;;;;5032096;28;21011;-76
2022/06/20 08:08:39;;;;;;;8.63;7.30;;;17.00;99.90;;;;;;5028262;28;20433;-77
2022/06/20 08:11:09;;;;;;;8.30;6.77;;;17.00;99.90;;;;;;5032291;28;20523;-77
2022/06/20 08:13:40;;;;;;;8.30;6.37;;;17.00;99.90;;;;;;5031166;28;20456;-77
2022/06/20 08:16:12;;;;;;;10.43;6.50;;;16.90;99.90;;;;;;5029966;28;20513;-77
2022/06/20 08:18:39;;;;;;;10.60;6.47;;;16.90;99.90;;;;;;5031674;28;20448;-77
2022/06/20 08:21:12;;;;;;;6.93;4.77;;;16.90;99.90;;;;;;5033281;28;20515;-77
2022/06/20 08:23:44;;;;;;;3.33;3.07;;;16.90;99.90;;;;;;5033744;28;21025;-78
2022/06/20 08:26:14;;;;;;;4.30;3.53;;;16.90;99.90;;;;;;5034499;28;20435;-77
2022/06/20 08:28:47;;;;;;;3.17;2.97;;;16.90;99.90;;;;;;5034030;28;20511;-77
2022/06/20 08:31:21;;;;;;;2.97;2.67;;;16.80;99.90;;;;;;5024228;28;20880;-77
2022/06/20 08:33:55;;;;;;;4.53;2.57;;;16.80;99.90;;;;;;5029989;28;20469;-77
2022/06/20 08:36:23;;;;;;;2.93;2.70;;;16.80;99.90;;;;;;5027495;28;20830;-78
2022/06/20 08:38:58;;;;;;;2.80;2.60;;;16.80;99.90;;;;;;5030785;28;20429;-77
2022/06/20 08:41:53;;;;;;;2.93;2.50;;;16.70;99.90;;;;;;5031015;28;20550;-77
2022/06/20 08:44:44;;;;;;;4.20;2.80;;;16.80;99.90;;;;;;5026283;28;20424;-77
2022/06/20 08:47:51;;;;;;;2.80;2.60;;;16.90;99.90;;;;;;5028309;28;20422;-77
2022/06/20 08:50:42;;;;;;;4.57;3.07;;;17.00;99.90;;;;;;5029366;28;20499;-77
2022/06/20 08:53:52;;;;;;;3.00;2.40;;;17.00;99.90;;;;;;5030339;28;20535;-77
2022/06/20 08:56:33;;;;;;;2.83;2.63;;;17.10;99.90;;;;;;5026654;28;20424;-77
2022/06/20 08:59:09;;;;;;;2.10;2.00;;;17.00;99.90;;;;;;5032048;28;20449;-77
2022/06/20 09:01:44;;;;;;;2.80;2.60;;;17.00;99.90;;;;;;5032107;28;20488;-77
2022/06/20 09:04:40;;;;;;;2.10;1.90;;;16.90;99.90;;;;;;5027589;28;20427;-77
2022/06/20 09:07:35;;;;;;;2.93;2.07;;;16.80;99.90;;;;;;5029774;28;20456;-76
2022/06/20 09:10:18;;;;;;;2.27;2.17;;;16.80;99.90;;;;;;5032235;28;20527;-77
2022/06/20 09:13:00;;;;;;;4.33;2.20;;;16.70;99.90;;;;;;5030538;28;20467;-77
2022/06/20 09:15:38;;;;;;;3.53;2.17;;;16.70;99.90;;;;;;5031336;28;20516;-78
2022/06/20 09:18:13;;;;;;;2.83;2.60;;;16.60;99.90;;;;;;5030910;28;20461;-77
2022/06/20 09:20:47;;;;;;;2.23;1.97;;;16.60;99.90;;;;;;5031851;28;20542;-76
2022/06/20 09:23:38;;;;;;;2.23;2.00;;;16.50;99.90;;;;;;5031886;28;20438;-77
2022/06/20 09:26:11;;;;;;;2.40;2.20;;;16.50;99.90;;;;;;5028261;28;20442;-78
2022/06/20 09:29:00;;;;;;;2.40;1.90;;;16.40;99.90;;;;;;5035005;28;20426;-78
2022/06/20 09:31:50;;;;;;;2.50;2.30;;;16.30;99.90;;;;;;5034114;28;20436;-77
2022/06/20 09:34:41;;;;;;;2.40;2.17;;;16.30;99.90;;;;;;5032954;28;20485;-76
2022/06/20 09:37:32;;;;;;;2.07;1.97;;;16.20;99.90;;;;;;5033736;28;20472;-78
2022/06/20 09:40:10;;;;;;;2.57;2.47;;;16.30;99.90;;;;;;5029961;28;20456;-77
2022/06/20 09:42:43;;;;;;;2.43;2.23;;;16.20;99.90;;;;;;5031999;28;20432;-78
2022/06/20 09:45:17;;;;;;;2.67;2.50;;;16.30;99.90;;;;;;5032466;28;20439;-78
2022/06/20 09:47:58;;;;;;;2.63;2.50;;;16.30;99.90;;;;;;5033055;28;20466;-77
2022/06/20 09:50:36;;;;;;;2.90;2.70;;;16.20;99.90;;;;;;5033062;28;20491;-77
2022/06/20 09:53:16;;;;;;;2.50;2.30;;;16.20;99.90;;;;;;5034415;28;20492;-78
2022/06/20 09:55:51;;;;;;;2.83;2.50;;;16.10;99.90;;;;;;5033820;28;20811;-77
2022/06/20 09:58:26;;;;;;;3.07;2.87;;;16.20;99.90;;;;;;5032245;28;20509;-77
2022/06/20 10:01:01;;;;;;;3.10;2.90;;;16.00;99.90;;;;;;5031435;28;20469;-77
2022/06/20 10:03:51;;;;;;;2.87;2.67;;;16.00;99.90;;;;;;5033128;28;20470;-76
2022/06/20 10:06:40;;;;;;;3.40;2.80;;;15.90;99.90;;;;;;5032273;28;20472;-77
2022/06/20 10:09:15;;;;;;;3.03;2.73;;;15.90;99.90;;;;;;5027026;28;20549;-77
2022/06/20 10:11:50;;;;;;;5.30;2.00;;;15.90;99.90;;;;;;5027676;28;20546;-76
2022/06/20 10:14:26;;;;;;;1.80;1.70;;;15.70;99.90;;;;;;5030094;28;20992;-76
2022/06/20 10:17:00;;;;;;;4.70;2.80;;;15.50;99.90;;;;;;5026956;28;20465;-76
2022/06/20 10:19:35;;;;;;;3.60;3.17;;;15.40;99.90;;;;;;5030831;28;20540;-77
2022/06/20 10:22:09;;;;;;;3.57;2.70;;;15.30;99.90;;;;;;5027223;28;20563;-76
2022/06/20 10:24:53;;;;;;;3.00;2.77;;;15.20;99.90;;;;;;5032969;28;20461;-76
2022/06/20 10:27:43;;;;;;;4.00;3.47;;;15.20;99.90;;;;;;5029463;28;20545;-76
2022/06/20 10:30:13;;;;;;;2.60;2.40;;;15.10;99.90;;;;;;5024395;28;20504;-75
2022/06/20 10:32:56;;;;;;;4.07;2.17;;;15.00;99.90;;;;;;5029379;28;20460;-76
2022/06/20 10:35:35;;;;;;;4.03;2.23;;;15.20;99.90;;;;;;5028357;28;20448;-77
2022/06/20 10:38:07;;;;;;;10.60;5.27;;;15.20;99.90;;;;;;5023894;28;20540;-77
2022/06/20 10:40:46;;;;;;;2.60;2.40;;;15.20;99.90;;;;;;5030946;28;20481;-76
2022/06/20 10:43:27;;;;;;;9.97;2.90;;;15.20;99.90;;;;;;5030793;28;20478;-77
2022/06/20 10:45:59;;;;;;;1.77;1.67;;;15.10;99.90;;;;;;5032618;28;20972;-76
2022/06/20 10:49:03;;;;;;;2.47;2.27;;;15.00;99.90;;;;;;5032470;28;20478;-77
2022/06/20 10:51:38;;;;;;;2.33;2.20;;;15.00;99.90;;;;;;5015397;28;20548;-76
2022/06/20 10:54:18;;;;;;;2.70;2.07;;;15.00;99.90;;;;;;5028489;28;20481;-76
2022/06/20 10:56:54;;;;;;;2.00;1.90;;;15.00;99.90;;;;;;5030044;28;20449;-76
2022/06/20 10:59:36;;;;;;;2.43;2.30;;;15.00;99.90;;;;;;5033611;28;20456;-77
2022/06/20 11:02:19;;;;;;;2.33;1.80;;;15.00;99.90;;;;;;5033828;28;21045;-77
2022/06/20 11:05:00;;;;;;;1.80;1.70;;;15.00;99.90;;;;;;5034557;28;20441;-77
2022/06/20 11:07:37;;;;;;;1.90;1.80;;;14.90;99.90;;;;;;5035090;28;20913;-78
2022/06/20 11:10:10;;;;;;;1.80;1.70;;;14.90;99.90;;;;;;5033302;28;20481;-77
2022/06/20 11:12:51;;;;;;;2.47;1.77;;;14.90;99.90;;;;;;5037477;28;20587;-76
2022/06/20 11:15:27;;;;;;;1.87;1.77;;;14.90;99.90;;;;;;5036349;28;20454;-77
2022/06/20 11:18:01;;;;;;;1.83;1.73;;;14.90;99.90;;;;;;5039184;28;20953;-77
2022/06/20 11:20:35;;;;;;;5.50;2.03;;;14.90;99.90;;;;;;5034306;28;20480;-77
2022/06/20 11:23:13;;;;;;;1.90;1.80;;;14.90;99.90;;;;;;5030753;28;20478;-76
2022/06/20 11:25:50;;;;;;;4.00;1.90;;;15.00;99.90;;;;;;5029666;28;20571;-77
2022/06/20 11:28:50;;;;;;;3.63;2.13;;;15.00;99.90;;;;;;5031384;28;20445;-77
2022/06/20 11:31:29;;;;;;;5.23;2.10;;;15.10;99.90;;;;;;5015134;28;20473;-77
2022/06/20 11:34:17;;;;;;;2.43;1.90;;;15.20;99.90;;;;;;5035561;28;20894;-77
2022/06/20 11:37:04;;;;;;;4.07;2.30;;;15.30;99.90;;;;;;5033033;28;20465;-77
2022/06/20 11:39:45;;;;;;;2.87;2.10;;;15.40;99.90;;;;;;5034509;28;21218;-77
2022/06/20 11:42:35;;;;;;;2.10;2.00;;;15.40;99.90;;;;;;5034915;28;21034;-77
2022/06/20 11:45:22;;;;;;;2.47;2.10;;;15.30;99.90;;;;;;5033910;28;20967;-77
2022/06/20 11:48:00;;;;;;;1.80;1.70;;;15.30;99.90;;;;;;5030974;28;20457;-75
2022/06/20 11:50:42;;;;;;;1.83;1.73;;;15.20;99.90;;;;;;5033886;28;20476;-76
2022/06/20 11:53:35;;;;;;;2.13;1.93;;;15.10;99.90;;;;;;5033357;28;20536;-76
2022/06/20 11:56:13;;;;;;;1.73;1.63;;;15.10;99.90;;;;;;5029495;28;20493;-77
2022/06/20 11:59:11;;;;;;;5.90;1.90;;;15.00;99.90;;;;;;5032250;28;20449;-75
2022/06/20 12:01:47;;;;;;;5.47;1.90;;;15.00;99.90;;;;;;5029799;28;21129;-76
2022/06/20 12:04:19;;;;;;;2.40;2.30;;;15.10;99.90;;;;;;5031591;28;20953;-76
2022/06/20 12:06:50;;;;;;;3.57;1.70;;;15.10;99.90;;;;;;5032431;28;20968;-76
2022/06/20 12:09:24;;;;;;;3.00;1.90;;;15.20;99.90;;;;;;5033068;28;20449;-77
2022/06/20 12:12:22;;;;;;;3.00;1.80;;;15.10;99.90;;;;;;5029709;28;20484;-77
2022/06/20 12:15:00;;;;;;;2.30;1.90;;;15.10;99.90;;;;;;5031283;28;20576;-76
2022/06/20 12:17:38;;;;;;;1.93;1.83;;;15.10;99.90;;;;;;5030166;28;20456;-76
2022/06/20 12:23:20;;;;;;;2.10;1.80;;;15.00;99.90;;;;;;5027705;28;20444;-76
2022/06/20 12:25:51;;;;;;;1.93;1.83;;;15.10;99.90;;;;;;5030215;28;20461;-76
2022/06/20 12:28:23;;;;;;;3.53;2.07;;;15.20;99.90;;;;;;5031812;28;20833;-76
2022/06/20 12:30:55;;;;;;;5.13;1.90;;;15.20;99.90;;;;;;5029572;28;20556;-76
2022/06/20 12:33:25;;;;;;;2.20;2.10;;;15.10;99.90;;;;;;5031148;28;20454;-77
2022/06/20 12:35:55;;;;;;;3.30;3.00;;;15.10;99.90;;;;;;5027315;28;20482;-76
2022/06/20 12:38:26;;;;;;;2.03;1.93;;;15.00;99.90;;;;;;5029704;28;20825;-77
2022/06/20 12:41:24;;;;;;;1.93;1.80;;;14.90;99.90;;;;;;5031863;28;20477;-77
2022/06/20 12:44:09;;;;;;;4.27;2.00;;;14.80;99.90;;;;;;4986014;28;21145;-77
2022/06/20 12:46:50;;;;;;;4.07;2.33;;;14.80;99.90;;;;;;5033082;28;20450;-76
2022/06/20 12:49:41;;;;;;;3.77;1.90;;;14.80;99.90;;;;;;5028695;28;20460;-76
2022/06/20 12:52:17;;;;;;;2.30;2.20;;;14.70;99.90;;;;;;5031730;28;20469;-76
2022/06/20 12:55:11;;;;;;;2.67;2.07;;;14.70;99.90;;;;;;5031296;28;20492;-77
2022/06/20 12:58:01;;;;;;;2.50;2.30;;;14.70;99.90;;;;;;5022867;28;20454;-77
2022/06/20 13:00:47;;;;;;;3.20;2.20;;;14.70;99.90;;;;;;5031832;28;20985;-77
2022/06/20 13:03:33;;;;;;;2.40;2.20;;;14.70;99.90;;;;;;5028988;28;20472;-76
2022/06/20 13:06:32;;;;;;;2.57;2.33;;;14.70;99.90;;;;;;5028389;28;20453;-77
2022/06/20 13:09:10;;;;;;;2.40;2.13;;;14.80;99.90;;;;;;5032472;28;20461;-77
2022/06/20 13:11:47;;;;;;;2.73;2.23;;;14.90;99.90;;;;;;5030845;28;20484;-76
2022/06/20 13:14:41;;;;;;;2.50;2.27;;;14.90;99.90;;;;;;5029064;28;20489;-77
2022/06/20 13:17:24;;;;;;;3.60;2.50;;;15.00;99.90;;;;;;5031791;28;20461;-76
2022/06/20 13:20:06;;;;;;;2.70;2.23;;;15.00;99.90;;;;;;5032484;28;20460;-77
2022/06/20 13:22:43;;;;;;;7.03;2.60;;;15.10;99.90;;;;;;5033861;28;20529;-77
2022/06/20 13:25:23;;;;;;;3.40;2.30;;;15.00;99.90;;;;;;5032893;28;20477;-77
2022/06/20 13:27:55;;;;;;;4.40;2.30;;;15.10;99.90;;;;;;5029206;28;20457;-76
2022/06/20 13:30:28;;;;;;;2.50;2.30;;;15.10;99.90;;;;;;5031849;28;20469;-77
2022/06/20 13:33:04;;;;;;;4.60;3.37;;;15.20;99.90;;;;;;5031287;28;20450;-76
2022/06/20 13:35:42;;;;;;;3.63;2.73;;;15.20;99.90;;;;;;5032645;28;20492;-75
2022/06/20 13:38:18;;;;;;;2.37;2.20;;;15.20;99.90;;;;;;5030659;28;20540;-77
2022/06/20 13:40:50;;;;;;;5.80;2.20;;;15.20;99.90;;;;;;5027940;28;20837;-77
2022/06/20 13:43:25;;;;;;;3.90;2.13;;;15.20;99.90;;;;;;5032186;28;20465;-77
2022/06/20 13:45:59;;;;;;;3.70;2.30;;;15.30;99.90;;;;;;5033366;28;20446;-76
2022/06/20 13:48:34;;;;;;;8.47;2.60;;;15.20;99.90;;;;;;5030801;28;20463;-76
2022/06/20 13:51:10;;;;;;;3.53;2.47;;;15.20;99.90;;;;;;5032250;28;20480;-77
2022/06/20 13:53:46;;;;;;;6.60;2.77;;;15.20;99.90;;;;;;5033194;28;20440;-76
2022/06/20 13:56:23;;;;;;;3.70;2.60;;;15.20;99.90;;;;;;5033869;28;21035;-78
2022/06/20 13:58:57;;;;;;;2.60;2.50;;;15.10;99.90;;;;;;5034820;28;20445;-79
2022/06/20 14:01:34;;;;;;;4.95;2.70;;;15.20;99.90;;;;;;5032754;28;20963;-78
2022/06/20 14:04:06;;;;;;;3.60;2.80;;;15.30;99.90;;;;;;5031633;28;20709;-78
2022/06/20 14:06:44;;;;;;;3.93;2.97;;;15.30;99.90;;;;;;5031261;28;20450;-77
2022/06/20 14:09:18;;;;;;;11.23;3.00;;;15.30;99.90;;;;;;5030473;28;21000;-76
2022/06/20 14:11:51;;;;;;;3.57;3.27;;;15.40;99.90;;;;;;5033290;28;20511;-78
2022/06/20 14:14:24;;;;;;;3.77;3.10;;;15.40;99.90;;;;;;5031854;28;20473;-78
2022/06/20 14:16:54;;;;;;;10.00;3.40;;;15.40;99.90;;;;;;5030670;28;20949;-78
2022/06/20 14:19:24;;;;;;;6.97;3.30;;;15.50;99.90;;;;;;5034050;28;20453;-78
2022/06/20 14:21:54;;;;;;;5.23;3.23;;;15.50;99.90;;;;;;5033786;28;20541;-78
2022/06/20 14:24:25;;;;;;;11.03;3.50;;;15.60;99.90;;;;;;5031588;28;20454;-77
2022/06/20 14:26:59;;;;;;;5.03;3.10;;;15.70;99.90;;;;;;5027046;28;20540;-78
2022/06/20 14:29:29;;;;;;;7.00;3.50;;;15.90;99.90;;;;;;5033537;28;20975;-79
2022/06/20 14:32:02;;;;;;;7.23;3.53;;;16.10;99.90;;;;;;5034027;28;20455;-79
2022/06/20 14:34:40;;;;;;;9.37;3.20;;;16.50;99.90;;;;;;5033893;28;21041;-78
2022/06/20 14:37:15;;;;;;;5.47;2.93;;;17.30;99.90;;;;;;5037824;28;20452;-78
2022/06/20 14:39:47;;;;;;;6.67;3.57;;;18.10;99.90;;;;;;5035754;28;21329;-78
2022/06/20 14:42:17;;;;;;;3.37;3.07;;;18.50;99.90;;;;;;5037011;28;20630;-78
2022/06/20 14:44:55;;;;;;;6.10;3.50;;;18.50;99.90;;;;;;5035897;28;20427;-77
2022/06/20 14:47:32;;;;;;;4.10;3.00;;;18.50;99.90;;;;;;5035803;28;20476;-77
2022/06/20 14:50:06;;;;;;;6.13;3.37;;;18.50;99.90;;;;;;5031592;28;20457;-78
2022/06/20 14:52:42;;;;;;;6.20;3.60;;;18.50;99.90;;;;;;5035089;28;20463;-79
2022/06/20 14:55:21;;;;;;;5.20;3.50;;;18.30;99.90;;;;;;5031858;28;20455;-79
2022/06/20 14:57:55;;;;;;;7.83;3.57;;;18.20;99.90;;;;;;5032181;28;20424;-79
2022/06/20 15:00:32;;;;;;;8.10;3.47;;;18.20;99.90;;;;;;5033902;28;20451;-80
2022/06/20 15:03:06;;;;;;;8.70;4.03;;;18.30;99.90;;;;;;5037636;28;20449;-81
2022/06/20 15:05:39;;;;;;;6.67;4.13;;;18.50;99.90;;;;;;5036165;28;20536;-80
2022/06/20 15:08:15;;;;;;;9.83;4.70;;;18.60;99.90;;;;;;5032744;28;20461;-78
2022/06/20 15:10:51;;;;;;;7.20;4.77;;;18.70;99.90;;;;;;5034514;28;20478;-79
2022/06/20 15:13:41;;;;;;;6.17;4.07;;;19.00;99.90;;;;;;5037836;28;20941;-79
2022/06/20 15:16:17;;;;;;;7.80;4.30;;;19.00;99.90;;;;;;5037752;28;20451;-78
2022/06/20 15:18:48;;;;;;;9.30;4.43;;;19.00;99.90;;;;;;5036859;28;20459;-79
2022/06/20 15:21:25;;;;;;;9.90;5.30;;;19.00;99.90;;;;;;5037041;28;20448;-78
2022/06/20 15:24:05;;;;;;;9.23;4.60;;;19.00;99.90;;;;;;5037486;28;20514;-78
2022/06/20 15:26:36;;;;;;;5.47;4.67;;;19.00;99.90;;;;;;5037950;28;21019;-78
2022/06/20 15:29:07;;;;;;;8.43;5.33;;;18.80;99.90;;;;;;5036075;28;20845;-79
2022/06/20 15:31:36;;;;;;;7.53;4.90;;;19.00;99.90;;;;;;5034168;28;20473;-78
2022/06/20 15:34:30;;;;;;;10.60;4.73;;;19.30;99.90;;;;;;5033957;28;20954;-78
2022/06/20 15:37:05;;;;;;;9.57;4.90;;;19.20;99.90;;;;;;5035394;28;20424;-77
2022/06/20 15:39:37;;;;;;;5.27;4.70;;;19.20;99.90;;;;;;5033227;28;20465;-77
2022/06/20 15:42:12;;;;;;;10.57;5.00;;;19.10;99.90;;;;;;5033191;28;20493;-77
2022/06/20 15:44:49;;;;;;;8.40;4.83;;;19.10;99.90;;;;;;5030085;28;20427;-78
2022/06/20 15:47:24;;;;;;;6.47;5.00;;;19.10;99.90;;;;;;5029624;28;20431;-78
2022/06/20 15:49:58;;;;;;;9.17;4.73;;;19.20;99.90;;;;;;5038376;28;20832;-79
2022/06/20 15:52:51;;;;;;;10.37;5.00;;;19.20;99.90;;;;;;5035945;28;20441;-79
2022/06/20 15:55:33;;;;;;;6.70;5.23;;;19.30;99.90;;;;;;5029327;28;20459;-78
2022/06/20 15:58:18;;;;;;;6.50;5.23;;;19.00;99.90;;;;;;5031472;28;20482;-78
2022/06/20 16:00:49;;;;;;;12.13;5.27;;;18.80;99.90;;;;;;5033638;28;20440;-78
2022/06/20 16:03:47;;;;;;;7.23;4.77;;;18.80;99.90;;;;;;5035942;28;20432;-78
2022/06/20 16:06:25;;;;;;;5.43;4.60;;;19.00;99.90;;;;;;4999893;28;20435;-80
2022/06/20 16:09:02;;;;;;;9.20;5.23;;;19.20;99.90;;;;;;5031439;28;20445;-78
2022/06/20 16:11:36;;;;;;;7.20;5.07;;;19.40;99.90;;;;;;5033172;28;20447;-78
2022/06/20 16:14:06;;;;;;;5.73;4.90;;;19.40;99.90;;;;;;5034459;28;20542;-79
2022/06/20 16:16:34;;;;;;;6.80;4.40;;;19.20;99.90;;;;;;5035225;28;20866;-76
2022/06/20 16:19:05;;;;;;;10.63;5.03;;;19.10;99.90;;;;;;5033715;28;20457;-79
2022/06/20 16:21:35;;;;;;;6.53;4.63;;;19.00;99.90;;;;;;5039956;28;20545;-80
2022/06/20 16:24:06;;;;;;;6.07;4.47;;;19.00;99.90;;;;;;5037615;28;20416;-80
2022/06/20 16:26:43;;;;;;;9.23;5.50;;;19.00;99.90;;;;;;5038943;28;20458;-80
2022/06/20 16:29:19;;;;;;;9.70;5.30;;;19.10;99.90;;;;;;5032352;28;20429;-80
2022/06/20 16:31:50;;;;;;;7.30;5.40;;;19.20;99.90;;;;;;5036541;28;20450;-80
2022/06/20 16:34:47;;;;;;;5.30;4.80;;;19.30;99.90;;;;;;5037484;28;20460;-80
2022/06/20 16:37:26;;;;;;;7.00;4.47;;;19.40;99.90;;;;;;5039588;28;20411;-80
2022/06/20 16:39:55;;;;;;;5.70;5.10;;;19.70;99.90;;;;;;5038268;28;20489;-79
2022/06/20 16:42:39;;;;;;;6.83;5.37;;;19.80;99.90;;;;;;5035150;28;20783;-81
2022/06/20 16:45:21;;;;;;;7.00;5.33;;;19.40;99.90;;;;;;5049396;28;20442;-79
2022/06/20 16:48:01;;;;;;;7.40;5.57;;;19.20;99.90;;;;;;5048610;28;20423;-80
2022/06/20 16:50:36;;;;;;;12.73;4.80;;;19.30;99.90;;;;;;5049178;28;20431;-82
2022/06/20 16:53:14;;;;;;;11.13;4.60;;;19.50;99.90;;;;;;5051146;28;21283;-79
2022/06/20 16:55:45;;;;;;;8.00;4.47;;;19.60;99.90;;;;;;5043797;28;20538;-80
2022/06/20 16:58:16;;;;;;;6.07;4.30;;;19.80;99.90;;;;;;5049956;28;20460;-79
2022/06/20 17:00:54;;;;;;;7.27;4.53;;;19.70;99.90;;;;;;5051663;28;20544;-80
2022/06/20 17:03:28;;;;;;;6.60;4.60;;;19.70;99.90;;;;;;5051252;28;20449;-80
2022/06/20 17:06:04;;;;;;;5.83;4.27;;;19.70;99.90;;;;;;5052513;28;20449;-80
2022/06/20 17:08:38;;;;;;;13.40;5.00;;;19.70;99.90;;;;;;5047571;28;20484;-79
2022/06/20 17:11:14;;;;;;;9.20;5.20;;;19.60;99.90;;;;;;5048529;28;20444;-78
2022/06/20 17:13:59;;;;;;;6.57;4.80;;;19.70;99.90;;;;;;5044539;28;20461;-78
2022/06/20 17:16:37;;;;;;;10.20;5.17;;;19.50;99.90;;;;;;5045549;28;21041;-79
2022/06/20 17:19:08;;;;;;;11.10;5.60;;;19.30;99.90;;;;;;5050169;28;20419;-77
2022/06/20 17:21:45;;;;;;;6.80;4.60;;;19.30;99.90;;;;;;5042703;28;20473;-78
2022/06/20 17:24:24;;;;;;;10.50;4.63;;;19.30;99.90;;;;;;5030395;28;20423;-77
2022/06/20 17:26:58;;;;;;;6.77;4.70;;;19.30;99.90;;;;;;5031099;28;20460;-78
2022/06/20 17:29:40;;;;;;;7.93;4.80;;;19.20;99.90;;;;;;5033422;28;21187;-79
2022/06/20 17:32:14;;;;;;;9.63;5.50;;;19.10;99.90;;;;;;5030047;28;20447;-79
2022/06/20 17:34:48;;;;;;;9.27;5.00;;;19.00;99.90;;;;;;5030128;28;20492;-79
2022/06/20 17:37:30;;;;;;;7.20;5.30;;;18.90;99.90;;;;;;5030753;28;20500;-79
2022/06/20 17:40:08;;;;;;;16.50;5.60;;;18.90;99.90;;;;;;5031359;28;20424;-79
2022/06/20 17:42:42;;;;;;;10.83;5.57;;;18.80;99.90;;;;;;5029275;28;20424;-79
2022/06/20 17:45:17;;;;;;;10.10;5.50;;;18.70;99.90;;;;;;5032653;28;20453;-78
2022/06/20 17:47:56;;;;;;;7.40;5.50;;;18.70;99.90;;;;;;5032424;28;20475;-78
2022/06/20 17:50:29;;;;;;;11.33;6.37;;;18.60;99.90;;;;;;5032338;28;20469;-78
2022/06/20 17:53:06;;;;;;;9.83;5.37;;;18.50;99.90;;;;;;5031984;28;20478;-78
2022/06/20 17:55:40;;;;;;;7.30;5.00;;;18.40;99.90;;;;;;5032282;28;20896;-77
2022/06/20 17:58:19;;;;;;;9.40;5.50;;;18.40;99.90;;;;;;5028868;28;20910;-78
2022/06/20 18:00:49;;;;;;;13.70;5.23;;;18.40;99.90;;;;;;5028466;28;20469;-77
2022/06/20 18:03:24;;;;;;;8.30;6.07;;;18.30;99.90;;;;;;5028094;28;20471;-78
2022/06/20 18:05:55;;;;;;;9.10;5.70;;;18.30;99.90;;;;;;5030942;28;20547;-77
2022/06/20 18:08:24;;;;;;;11.43;6.20;;;18.20;99.90;;;;;;5029989;28;20942;-77
2022/06/20 18:10:57;;;;;;;9.37;5.17;;;18.10;99.90;;;;;;5030265;28;21269;-79
2022/06/20 18:13:28;;;;;;;6.43;5.70;;;18.00;99.90;;;;;;5025185;28;20462;-79
2022/06/20 18:15:59;;;;;;;13.60;5.97;;;17.90;99.90;;;;;;5030623;28;20456;-78
2022/06/20 18:18:33;;;;;;;8.80;6.20;;;17.90;99.90;;;;;;5031674;28;20446;-77
2022/06/20 18:21:05;;;;;;;9.03;6.20;;;17.80;99.90;;;;;;5030434;28;20502;-77
2022/06/20 18:23:37;;;;;;;12.77;6.30;;;17.80;99.90;;;;;;5029582;28;20449;-77
2022/06/20 18:26:10;;;;;;;7.30;5.43;;;17.70;99.90;;;;;;5030176;28;20445;-78
2022/06/20 18:28:40;;;;;;;13.40;6.30;;;17.70;99.90;;;;;;5028429;28;20428;-78
2022/06/20 18:31:11;;;;;;;6.83;6.03;;;17.60;99.90;;;;;;5031361;28;20473;-77
2022/06/20 18:33:45;;;;;;;9.10;6.30;;;17.60;99.90;;;;;;5030664;28;20969;-77
2022/06/20 18:36:18;;;;;;;9.10;6.20;;;17.50;99.90;;;;;;5031512;28;20489;-77
2022/06/20 18:39:18;;;;;;;15.00;8.33;;;17.50;99.90;;;;;;5028064;28;20432;-78
2022/06/20 18:41:52;;;;;;;11.30;6.80;;;17.60;99.90;;;;;;5026745;28;20822;-78
2022/06/20 18:44:20;;;;;;;15.33;7.33;;;17.50;99.90;;;;;;5030229;28;20998;-78
2022/06/20 18:47:21;;;;;;;10.17;7.00;;;17.50;99.90;;;;;;5030191;28;20453;-78
2022/06/20 18:50:03;;;;;;;9.97;6.10;;;17.40;99.90;;;;;;5021189;28;20452;-79
2022/06/20 18:52:46;;;;;;;11.33;6.60;;;17.40;99.90;;;;;;5031322;28;20515;-79
2022/06/20 18:55:25;;;;;;;15.77;6.60;;;17.40;99.90;;;;;;5031343;28;20876;-78
2022/06/20 18:58:13;;;;;;;8.70;6.70;;;17.40;99.90;;;;;;5032462;28;20428;-78
2022/06/20 19:01:06;;;;;;;12.87;7.37;;;17.30;99.90;;;;;;5030629;28;20444;-78
2022/06/20 19:04:12;;;;;;;15.60;7.37;;;17.30;99.90;;;;;;5031225;28;20470;-79
2022/06/20 19:07:05;;;;;;;9.03;7.40;;;17.20;99.90;;;;;;5018514;28;20461;-78
2022/06/20 19:09:57;;;;;;;9.30;7.40;;;17.10;99.90;;;;;;5031677;28;20506;-79
2022/06/20 19:12:43;;;;;;;9.13;6.87;;;17.10;99.90;;;;;;5009305;28;20457;-77
2022/06/20 19:15:43;;;;;;;8.73;7.03;;;17.00;99.90;;;;;;5031286;28;20432;-79
2022/06/20 19:18:39;;;;;;;11.23;7.83;;;16.90;99.90;;;;;;5016489;28;20428;-78
2022/06/20 19:21:28;;;;;;;11.80;7.80;;;16.80;99.90;;;;;;5034720;28;20517;-79
2022/06/20 19:23:59;;;;;;;11.10;7.73;;;16.70;99.90;;;;;;5035624;28;20416;-79
2022/06/20 19:26:30;;;;;;;13.63;8.40;;;16.70;99.90;;;;;;5036267;28;20489;-80
2022/06/20 19:29:04;;;;;;;13.80;7.80;;;16.60;99.90;;;;;;5035326;28;20457;-77
2022/06/20 19:31:34;;;;;;;16.13;10.23;;;16.60;99.90;;;;;;5031167;28;20444;-78
2022/06/20 19:34:11;;;;;;;11.63;9.00;;;16.50;99.90;;;;;;5035056;28;20461;-79
2022/06/20 19:36:41;;;;;;;12.50;8.50;;;16.40;99.90;;;;;;5036127;28;20539;-79
2022/06/20 19:39:12;;;;;;;13.87;9.00;;;16.30;99.90;;;;;;5036061;28;20490;-80
2022/06/20 19:41:50;;;;;;;15.53;9.03;;;16.30;99.90;;;;;;5031947;28;20452;-78
2022/06/20 19:44:32;;;;;;;12.20;9.70;;;16.30;99.90;;;;;;5030023;28;20423;-77
2022/06/20 19:47:02;;;;;;;16.83;8.60;;;16.20;99.90;;;;;;5033164;28;20979;-77
2022/06/20 19:49:46;;;;;;;10.20;9.00;;;16.10;99.90;;;;;;5032200;28;20457;-77
2022/06/20 19:52:37;;;;;;;9.60;8.43;;;16.10;99.90;;;;;;5029317;28;21050;-77
2022/06/20 19:55:12;;;;;;;10.03;8.03;;;16.00;99.90;;;;;;5032934;28;20433;-77